עמוד ראשי
METAR-TAF:

METAR-TAF

שדות תעופה :

Chihuahua, מקסיקו

קו רוחב: 28-42N, קו אורך: 105-58W, גובה: 1360מטר

תצפית מזג אוויר נוכחית

הדו"ח נערך לפני 8 שעות ו 0דקות, בשעה 03:40 UTC
רוח 5קשר מכיוון מזרח/צפון-מזרח
טמפרטורת 28 צלסיוס
לחות 30%
לחץ 1021 hPa
ראות: 16.1קילומטר
מעט עננים בגובה 3000רגל

METAR: MMCU 120340Z 06005KT 10SM FEW030 28/09 A3014 RMK 8/400

זמן: 05:40 (11:40 UTC)

תחזית

הדו"ח נערך לפני 5 שעות ו 45דקות, בשעה 05:55 UTC
תחזית בתוקף מ 12 ב 06 UTC עד 13 ב 06 UTC
רוח 5קשר מכיוון מזרח/צפון-מזרח
ראות: 10קילומטר
עננים פזורים בגובה 3000רגל
מ 12 ב 1500UTC
רוח 10קשר מכיוון צפון-מזרח
ראות: 10קילומטר
עננים פזורים בגובה 3000רגל
מ 12 ב 1800UTC
רוח 10קשר מכיוון מזרח/צפון-מזרח עם משבים עד 20קשר
ראות: 10קילומטר
עננים בינוניים בגובה 3000רגל , קומולונימבוס.
עננים בינוניים בגובה 8000רגל

TAF: MMCU 120555Z 1206/1306 06005KT P6SM SCT030 FM121500 05010KT P6SM SCT030 FM121800 06010G20KT P6SM BKN030CB BKN080

תצפיות ותחזיות מזג אוויר לגבי יותר מ- 4,000 שדות תעופה ברחבי העולם. דוחות METAR ו- TAF.

התחנות הזמינות מסומנות בנקודות צהובות ואדומות על גבי המפה.

העבר את העכבר לנקודה הצבעונית על מנת לראות את שם התחנה.

לאחר מכן, לחץ כדי לראות את תוכן ואת תחזיות מזג האוויר.

כדי לשנות את המפה: לחץ על הכפתורים הירוקים עם הפלוס השחור כדי להתקרב; על הכפתור הירוק עם המקף כדי להתרחק; או בחיצים הירוקים למפות סמוכות.


METAR-TAF: